sensor_id;sensor_type;location;lat;lon;timestamp;P1;durP1;ratioP1;P2;durP2;ratioP2
71806;SDS011;59655;42.590;23.364;2022-07-04T00:00:04;15.75;;;7.82;;
71806;SDS011;59655;42.590;23.364;2022-07-04T00:02:31;11.43;;;7.72;;
71806;SDS011;59655;42.590;23.364;2022-07-04T00:04:57;10.40;;;7.68;;
71806;SDS011;59655;42.590;23.364;2022-07-04T00:07:22;16.02;;;7.75;;
71806;SDS011;59655;42.590;23.364;2022-07-04T00:09:48;11.50;;;7.32;;
71806;SDS011;59655;42.590;23.364;2022-07-04T00:12:13;14.68;;;7.82;;
71806;SDS011;59655;42.590;23.364;2022-07-04T00:14:38;10.95;;;8.07;;
71806;SDS011;59655;42.590;23.364;2022-07-04T00:17:04;12.63;;;7.78;;
71806;SDS011;59655;42.590;23.364;2022-07-04T00:19:29;12.27;;;7.00;;
71806;SDS011;59655;42.590;23.364;2022-07-04T00:21:55;17.88;;;7.97;;
71806;SDS011;59655;42.590;23.364;2022-07-04T00:24:20;11.10;;;7.22;;
71806;SDS011;59655;42.590;23.364;2022-07-04T00:26:46;15.05;;;8.20;;
71806;SDS011;59655;42.590;23.364;2022-07-04T00:29:11;13.13;;;7.28;;
71806;SDS011;59655;42.590;23.364;2022-07-04T00:31:36;13.40;;;8.55;;
71806;SDS011;59655;42.590;23.364;2022-07-04T00:34:02;16.13;;;8.90;;
71806;SDS011;59655;42.590;23.364;2022-07-04T00:36:28;12.25;;;8.68;;
71806;SDS011;59655;42.590;23.364;2022-07-04T00:38:53;15.20;;;8.32;;
71806;SDS011;59655;42.590;23.364;2022-07-04T00:41:19;15.13;;;9.43;;
71806;SDS011;59655;42.590;23.364;2022-07-04T00:43:44;16.25;;;9.90;;
71806;SDS011;59655;42.590;23.364;2022-07-04T00:46:25;16.85;;;9.68;;
71806;SDS011;59655;42.590;23.364;2022-07-04T00:48:50;17.52;;;11.52;;
71806;SDS011;59655;42.590;23.364;2022-07-04T00:51:15;17.00;;;11.68;;
71806;SDS011;59655;42.590;23.364;2022-07-04T00:53:42;16.95;;;11.43;;
71806;SDS011;59655;42.590;23.364;2022-07-04T00:56:07;17.50;;;12.35;;
71806;SDS011;59655;42.590;23.364;2022-07-04T00:58:32;18.92;;;11.93;;
71806;SDS011;59655;42.590;23.364;2022-07-04T01:00:58;19.92;;;11.48;;
71806;SDS011;59655;42.590;23.364;2022-07-04T01:03:24;16.73;;;11.45;;
71806;SDS011;59655;42.590;23.364;2022-07-04T01:05:49;19.23;;;12.00;;
71806;SDS011;59655;42.590;23.364;2022-07-04T01:08:16;16.45;;;10.48;;
71806;SDS011;59655;42.590;23.364;2022-07-04T01:10:41;15.00;;;9.88;;
71806;SDS011;59655;42.590;23.364;2022-07-04T01:13:07;14.05;;;8.55;;
71806;SDS011;59655;42.590;23.364;2022-07-04T01:15:32;13.10;;;8.38;;
71806;SDS011;59655;42.590;23.364;2022-07-04T01:17:58;11.88;;;7.82;;
71806;SDS011;59655;42.590;23.364;2022-07-04T01:20:23;11.65;;;8.43;;
71806;SDS011;59655;42.590;23.364;2022-07-04T01:22:49;13.95;;;8.70;;
71806;SDS011;59655;42.590;23.364;2022-07-04T01:25:14;19.13;;;9.27;;
71806;SDS011;59655;42.590;23.364;2022-07-04T01:27:40;17.15;;;11.57;;
71806;SDS011;59655;42.590;23.364;2022-07-04T01:30:06;20.38;;;12.55;;
71806;SDS011;59655;42.590;23.364;2022-07-04T01:32:32;19.02;;;12.65;;
71806;SDS011;59655;42.590;23.364;2022-07-04T01:34:58;15.40;;;9.90;;
71806;SDS011;59655;42.590;23.364;2022-07-04T01:37:23;16.45;;;9.68;;
71806;SDS011;59655;42.590;23.364;2022-07-04T01:39:48;14.88;;;9.20;;
71806;SDS011;59655;42.590;23.364;2022-07-04T01:42:14;15.43;;;8.35;;
71806;SDS011;59655;42.590;23.364;2022-07-04T01:44:39;14.77;;;8.77;;
71806;SDS011;59655;42.590;23.364;2022-07-04T01:47:05;13.93;;;8.90;;
71806;SDS011;59655;42.590;23.364;2022-07-04T01:49:30;14.13;;;8.80;;
71806;SDS011;59655;42.590;23.364;2022-07-04T01:51:56;17.10;;;9.23;;
71806;SDS011;59655;42.590;23.364;2022-07-04T01:54:21;16.42;;;9.18;;
71806;SDS011;59655;42.590;23.364;2022-07-04T01:56:46;14.50;;;9.50;;
71806;SDS011;59655;42.590;23.364;2022-07-04T01:59:12;13.85;;;8.93;;
71806;SDS011;59655;42.590;23.364;2022-07-04T02:01:37;15.98;;;9.45;;
71806;SDS011;59655;42.590;23.364;2022-07-04T02:04:04;18.52;;;11.02;;
71806;SDS011;59655;42.590;23.364;2022-07-04T02:06:30;20.63;;;12.48;;
71806;SDS011;59655;42.590;23.364;2022-07-04T02:08:57;19.95;;;12.48;;
71806;SDS011;59655;42.590;23.364;2022-07-04T02:11:41;23.27;;;14.60;;
71806;SDS011;59655;42.590;23.364;2022-07-04T02:14:27;21.15;;;14.23;;
71806;SDS011;59655;42.590;23.364;2022-07-04T02:16:53;30.58;;;15.60;;
71806;SDS011;59655;42.590;23.364;2022-07-04T02:19:19;24.70;;;15.50;;
71806;SDS011;59655;42.590;23.364;2022-07-04T02:21:44;20.90;;;14.13;;
71806;SDS011;59655;42.590;23.364;2022-07-04T02:24:10;22.48;;;14.45;;
71806;SDS011;59655;42.590;23.364;2022-07-04T02:26:35;23.48;;;15.43;;
71806;SDS011;59655;42.590;23.364;2022-07-04T02:29:01;23.40;;;15.45;;
71806;SDS011;59655;42.590;23.364;2022-07-04T02:31:26;21.70;;;15.57;;
71806;SDS011;59655;42.590;23.364;2022-07-04T02:33:51;23.95;;;15.48;;
71806;SDS011;59655;42.590;23.364;2022-07-04T02:36:17;21.15;;;14.27;;
71806;SDS011;59655;42.590;23.364;2022-07-04T02:38:42;22.58;;;15.48;;
71806;SDS011;59655;42.590;23.364;2022-07-04T02:41:08;22.73;;;14.98;;
71806;SDS011;59655;42.590;23.364;2022-07-04T02:43:33;25.67;;;15.60;;
71806;SDS011;59655;42.590;23.364;2022-07-04T02:45:58;21.63;;;15.13;;
71806;SDS011;59655;42.590;23.364;2022-07-04T02:48:24;24.90;;;15.73;;
71806;SDS011;59655;42.590;23.364;2022-07-04T02:50:49;30.08;;;15.77;;
71806;SDS011;59655;42.590;23.364;2022-07-04T02:53:15;29.60;;;15.45;;
71806;SDS011;59655;42.590;23.364;2022-07-04T02:55:40;25.75;;;15.95;;
71806;SDS011;59655;42.590;23.364;2022-07-04T03:12:16;19.08;;;13.82;;
71806;SDS011;59655;42.590;23.364;2022-07-04T03:14:42;20.52;;;13.43;;
71806;SDS011;59655;42.590;23.364;2022-07-04T03:17:07;22.17;;;13.82;;
71806;SDS011;59655;42.590;23.364;2022-07-04T03:19:32;21.33;;;13.45;;
71806;SDS011;59655;42.590;23.364;2022-07-04T03:21:58;19.10;;;12.63;;
71806;SDS011;59655;42.590;23.364;2022-07-04T03:24:23;18.20;;;12.02;;
71806;SDS011;59655;42.590;23.364;2022-07-04T03:26:49;16.67;;;10.45;;
71806;SDS011;59655;42.590;23.364;2022-07-04T03:29:14;22.70;;;13.15;;
71806;SDS011;59655;42.590;23.364;2022-07-04T03:31:40;25.63;;;12.35;;
71806;SDS011;59655;42.590;23.364;2022-07-04T03:34:05;28.83;;;14.20;;
71806;SDS011;59655;42.590;23.364;2022-07-04T03:36:30;27.35;;;14.50;;
71806;SDS011;59655;42.590;23.364;2022-07-04T03:38:56;25.25;;;14.57;;
71806;SDS011;59655;42.590;23.364;2022-07-04T03:41:21;25.73;;;15.50;;
71806;SDS011;59655;42.590;23.364;2022-07-04T03:43:46;26.23;;;15.40;;
71806;SDS011;59655;42.590;23.364;2022-07-04T03:46:12;31.73;;;15.70;;
71806;SDS011;59655;42.590;23.364;2022-07-04T03:48:37;28.33;;;15.38;;
71806;SDS011;59655;42.590;23.364;2022-07-04T03:51:03;26.65;;;14.85;;
71806;SDS011;59655;42.590;23.364;2022-07-04T03:53:28;26.63;;;15.13;;
71806;SDS011;59655;42.590;23.364;2022-07-04T03:55:54;25.02;;;15.68;;
71806;SDS011;59655;42.590;23.364;2022-07-04T03:58:19;22.85;;;15.07;;
71806;SDS011;59655;42.590;23.364;2022-07-04T04:00:44;24.38;;;13.50;;
71806;SDS011;59655;42.590;23.364;2022-07-04T04:03:10;22.52;;;13.25;;
71806;SDS011;59655;42.590;23.364;2022-07-04T04:05:55;23.27;;;15.65;;
71806;SDS011;59655;42.590;23.364;2022-07-04T04:08:21;35.35;;;15.57;;
71806;SDS011;59655;42.590;23.364;2022-07-04T04:10:47;38.70;;;18.35;;
71806;SDS011;59655;42.590;23.364;2022-07-04T04:13:14;44.70;;;17.23;;
71806;SDS011;59655;42.590;23.364;2022-07-04T04:15:39;29.92;;;16.73;;
71806;SDS011;59655;42.590;23.364;2022-07-04T04:18:04;32.67;;;16.70;;
71806;SDS011;59655;42.590;23.364;2022-07-04T04:20:30;33.75;;;16.80;;
71806;SDS011;59655;42.590;23.364;2022-07-04T04:22:55;29.23;;;15.82;;
71806;SDS011;59655;42.590;23.364;2022-07-04T04:25:21;29.60;;;16.20;;
71806;SDS011;59655;42.590;23.364;2022-07-04T04:27:46;21.30;;;15.10;;
71806;SDS011;59655;42.590;23.364;2022-07-04T04:30:12;25.92;;;15.52;;
71806;SDS011;59655;42.590;23.364;2022-07-04T04:32:37;28.02;;;15.30;;
71806;SDS011;59655;42.590;23.364;2022-07-04T04:35:02;23.50;;;13.30;;
71806;SDS011;59655;42.590;23.364;2022-07-04T04:37:28;21.95;;;13.55;;
71806;SDS011;59655;42.590;23.364;2022-07-04T04:39:54;17.92;;;12.75;;
71806;SDS011;59655;42.590;23.364;2022-07-04T04:42:19;21.20;;;12.85;;
71806;SDS011;59655;42.590;23.364;2022-07-04T04:44:44;23.67;;;12.77;;
71806;SDS011;59655;42.590;23.364;2022-07-04T04:47:10;20.52;;;12.70;;
71806;SDS011;59655;42.590;23.364;2022-07-04T04:49:35;26.00;;;11.88;;
71806;SDS011;59655;42.590;23.364;2022-07-04T04:52:01;22.42;;;12.00;;
71806;SDS011;59655;42.590;23.364;2022-07-04T04:54:26;17.55;;;11.55;;
71806;SDS011;59655;42.590;23.364;2022-07-04T04:56:51;19.25;;;11.20;;
71806;SDS011;59655;42.590;23.364;2022-07-04T04:59:17;18.17;;;11.05;;
71806;SDS011;59655;42.590;23.364;2022-07-04T05:01:42;18.10;;;11.27;;
71806;SDS011;59655;42.590;23.364;2022-07-04T05:04:08;23.88;;;12.13;;
71806;SDS011;59655;42.590;23.364;2022-07-04T05:06:33;22.67;;;11.23;;
71806;SDS011;59655;42.590;23.364;2022-07-04T05:08:59;18.67;;;11.82;;
71806;SDS011;59655;42.590;23.364;2022-07-04T05:11:24;18.55;;;11.68;;
71806;SDS011;59655;42.590;23.364;2022-07-04T05:13:49;18.02;;;11.50;;
71806;SDS011;59655;42.590;23.364;2022-07-04T05:16:15;21.30;;;11.40;;
71806;SDS011;59655;42.590;23.364;2022-07-04T05:18:40;19.25;;;11.57;;
71806;SDS011;59655;42.590;23.364;2022-07-04T05:21:06;20.13;;;11.98;;
71806;SDS011;59655;42.590;23.364;2022-07-04T05:23:31;19.90;;;11.05;;
71806;SDS011;59655;42.590;23.364;2022-07-04T05:25:56;29.23;;;12.57;;
71806;SDS011;59655;42.590;23.364;2022-07-04T05:28:22;21.67;;;12.18;;
71806;SDS011;59655;42.590;23.364;2022-07-04T05:30:47;23.65;;;12.40;;
71806;SDS011;59655;42.590;23.364;2022-07-04T05:33:13;17.77;;;11.52;;
71806;SDS011;59655;42.590;23.364;2022-07-04T05:35:38;18.42;;;12.63;;
71806;SDS011;59655;42.590;23.364;2022-07-04T05:38:04;19.13;;;11.93;;
71806;SDS011;59655;42.590;23.364;2022-07-04T05:40:29;23.13;;;12.00;;
71806;SDS011;59655;42.590;23.364;2022-07-04T05:42:55;22.65;;;14.77;;
71806;SDS011;59655;42.590;23.364;2022-07-04T05:45:21;22.63;;;13.23;;
71806;SDS011;59655;42.590;23.364;2022-07-04T05:47:47;20.40;;;12.60;;
71806;SDS011;59655;42.590;23.364;2022-07-04T05:50:12;22.63;;;12.70;;
71806;SDS011;59655;42.590;23.364;2022-07-04T05:52:37;21.40;;;11.52;;
71806;SDS011;59655;42.590;23.364;2022-07-04T05:55:03;20.08;;;10.90;;
71806;SDS011;59655;42.590;23.364;2022-07-04T05:57:29;22.60;;;11.50;;
71806;SDS011;59655;42.590;23.364;2022-07-04T05:59:54;23.05;;;11.57;;
71806;SDS011;59655;42.590;23.364;2022-07-04T06:02:20;19.52;;;10.75;;
71806;SDS011;59655;42.590;23.364;2022-07-04T06:04:47;26.35;;;10.70;;
71806;SDS011;59655;42.590;23.364;2022-07-04T06:07:12;19.30;;;10.13;;
71806;SDS011;59655;42.590;23.364;2022-07-04T06:09:38;19.67;;;10.10;;
71806;SDS011;59655;42.590;23.364;2022-07-04T06:12:04;18.50;;;9.98;;
71806;SDS011;59655;42.590;23.364;2022-07-04T06:14:30;18.05;;;9.82;;
71806;SDS011;59655;42.590;23.364;2022-07-04T06:16:55;17.40;;;8.90;;
71806;SDS011;59655;42.590;23.364;2022-07-04T06:19:21;22.67;;;10.35;;
71806;SDS011;59655;42.590;23.364;2022-07-04T06:21:46;22.77;;;9.57;;
71806;SDS011;59655;42.590;23.364;2022-07-04T06:24:12;25.40;;;9.32;;
71806;SDS011;59655;42.590;23.364;2022-07-04T06:26:37;17.70;;;9.13;;
71806;SDS011;59655;42.590;23.364;2022-07-04T06:29:03;18.33;;;9.68;;
71806;SDS011;59655;42.590;23.364;2022-07-04T06:31:28;18.20;;;9.43;;
71806;SDS011;59655;42.590;23.364;2022-07-04T06:33:53;14.45;;;9.02;;
71806;SDS011;59655;42.590;23.364;2022-07-04T06:36:37;18.58;;;9.52;;
71806;SDS011;59655;42.590;23.364;2022-07-04T06:39:02;16.05;;;9.07;;
71806;SDS011;59655;42.590;23.364;2022-07-04T06:41:28;15.25;;;8.90;;
71806;SDS011;59655;42.590;23.364;2022-07-04T06:43:53;21.15;;;9.55;;
71806;SDS011;59655;42.590;23.364;2022-07-04T06:46:19;20.90;;;10.15;;
71806;SDS011;59655;42.590;23.364;2022-07-04T06:48:45;21.23;;;10.55;;
71806;SDS011;59655;42.590;23.364;2022-07-04T06:51:10;18.30;;;10.70;;
71806;SDS011;59655;42.590;23.364;2022-07-04T06:53:36;18.90;;;10.68;;
71806;SDS011;59655;42.590;23.364;2022-07-04T06:56:01;20.52;;;10.45;;
71806;SDS011;59655;42.590;23.364;2022-07-04T06:58:27;18.65;;;10.93;;
71806;SDS011;59655;42.590;23.364;2022-07-04T07:00:52;22.83;;;11.23;;
71806;SDS011;59655;42.590;23.364;2022-07-04T07:03:18;22.02;;;10.93;;
71806;SDS011;59655;42.590;23.364;2022-07-04T07:05:43;30.08;;;11.85;;
71806;SDS011;59655;42.590;23.364;2022-07-04T07:08:09;20.73;;;11.35;;
71806;SDS011;59655;42.590;23.364;2022-07-04T07:10:34;17.15;;;10.20;;
71806;SDS011;59655;42.590;23.364;2022-07-04T07:13:01;17.83;;;10.63;;
71806;SDS011;59655;42.590;23.364;2022-07-04T07:15:27;18.90;;;10.82;;
71806;SDS011;59655;42.590;23.364;2022-07-04T07:17:53;19.27;;;11.32;;
71806;SDS011;59655;42.590;23.364;2022-07-04T07:20:19;22.30;;;11.05;;
71806;SDS011;59655;42.590;23.364;2022-07-04T07:22:44;20.60;;;11.65;;
71806;SDS011;59655;42.590;23.364;2022-07-04T07:25:10;23.17;;;11.13;;
71806;SDS011;59655;42.590;23.364;2022-07-04T07:27:36;17.67;;;11.35;;
71806;SDS011;59655;42.590;23.364;2022-07-04T07:30:03;18.20;;;11.15;;
71806;SDS011;59655;42.590;23.364;2022-07-04T07:32:29;22.55;;;12.18;;
71806;SDS011;59655;42.590;23.364;2022-07-04T07:34:54;20.20;;;11.07;;
71806;SDS011;59655;42.590;23.364;2022-07-04T07:37:20;18.50;;;11.05;;
71806;SDS011;59655;42.590;23.364;2022-07-04T07:39:47;19.33;;;11.88;;
71806;SDS011;59655;42.590;23.364;2022-07-04T07:42:13;17.63;;;12.10;;
71806;SDS011;59655;42.590;23.364;2022-07-04T07:44:38;15.88;;;11.00;;
71806;SDS011;59655;42.590;23.364;2022-07-04T07:47:04;19.13;;;11.65;;
71806;SDS011;59655;42.590;23.364;2022-07-04T07:49:29;17.00;;;11.23;;
71806;SDS011;59655;42.590;23.364;2022-07-04T07:51:54;19.48;;;13.02;;
71806;SDS011;59655;42.590;23.364;2022-07-04T07:54:21;20.80;;;13.13;;
71806;SDS011;59655;42.590;23.364;2022-07-04T07:56:46;21.23;;;13.93;;
71806;SDS011;59655;42.590;23.364;2022-07-04T07:59:12;19.50;;;13.20;;
71806;SDS011;59655;42.590;23.364;2022-07-04T08:01:37;23.00;;;13.55;;
71806;SDS011;59655;42.590;23.364;2022-07-04T08:04:03;21.42;;;13.68;;
71806;SDS011;59655;42.590;23.364;2022-07-04T08:06:47;24.55;;;12.98;;
71806;SDS011;59655;42.590;23.364;2022-07-04T08:09:12;24.77;;;13.48;;
71806;SDS011;59655;42.590;23.364;2022-07-04T08:11:39;18.48;;;12.70;;
71806;SDS011;59655;42.590;23.364;2022-07-04T08:14:05;21.23;;;12.80;;
71806;SDS011;59655;42.590;23.364;2022-07-04T08:16:32;21.42;;;12.30;;
71806;SDS011;59655;42.590;23.364;2022-07-04T08:18:58;20.77;;;13.27;;
71806;SDS011;59655;42.590;23.364;2022-07-04T08:21:23;21.08;;;12.82;;
71806;SDS011;59655;42.590;23.364;2022-07-04T08:23:49;19.75;;;12.27;;
71806;SDS011;59655;42.590;23.364;2022-07-04T08:26:14;22.30;;;12.88;;
71806;SDS011;59655;42.590;23.364;2022-07-04T08:28:39;19.35;;;12.60;;
71806;SDS011;59655;42.590;23.364;2022-07-04T08:31:05;24.90;;;13.32;;
71806;SDS011;59655;42.590;23.364;2022-07-04T08:33:30;22.92;;;13.32;;
71806;SDS011;59655;42.590;23.364;2022-07-04T08:35:56;22.45;;;13.63;;
71806;SDS011;59655;42.590;23.364;2022-07-04T08:38:23;22.20;;;12.93;;
71806;SDS011;59655;42.590;23.364;2022-07-04T08:40:48;26.20;;;13.38;;
71806;SDS011;59655;42.590;23.364;2022-07-04T08:43:16;26.63;;;14.30;;
71806;SDS011;59655;42.590;23.364;2022-07-04T08:45:47;20.42;;;13.02;;
71806;SDS011;59655;42.590;23.364;2022-07-04T08:48:14;23.58;;;13.25;;
71806;SDS011;59655;42.590;23.364;2022-07-04T08:50:44;28.48;;;13.85;;
71806;SDS011;59655;42.590;23.364;2022-07-04T08:53:20;21.98;;;12.85;;
71806;SDS011;59655;42.590;23.364;2022-07-04T08:55:46;27.52;;;13.45;;
71806;SDS011;59655;42.590;23.364;2022-07-04T08:58:32;29.23;;;13.18;;
71806;SDS011;59655;42.590;23.364;2022-07-04T09:00:59;20.15;;;12.30;;
71806;SDS011;59655;42.590;23.364;2022-07-04T09:03:26;23.88;;;12.73;;
71806;SDS011;59655;42.590;23.364;2022-07-04T09:05:53;25.67;;;13.30;;
71806;SDS011;59655;42.590;23.364;2022-07-04T09:08:18;23.83;;;13.38;;
71806;SDS011;59655;42.590;23.364;2022-07-04T09:10:45;24.88;;;13.65;;
71806;SDS011;59655;42.590;23.364;2022-07-04T09:13:12;22.83;;;13.52;;
71806;SDS011;59655;42.590;23.364;2022-07-04T09:15:43;22.73;;;13.40;;
71806;SDS011;59655;42.590;23.364;2022-07-04T09:20:47;23.83;;;13.82;;
71806;SDS011;59655;42.590;23.364;2022-07-04T09:23:20;19.88;;;13.82;;
71806;SDS011;59655;42.590;23.364;2022-07-04T09:26:06;23.38;;;13.32;;
71806;SDS011;59655;42.590;23.364;2022-07-04T09:28:32;23.05;;;13.70;;
71806;SDS011;59655;42.590;23.364;2022-07-04T09:30:57;19.25;;;13.35;;
71806;SDS011;59655;42.590;23.364;2022-07-04T09:33:35;21.33;;;14.63;;
71806;SDS011;59655;42.590;23.364;2022-07-04T09:36:16;22.92;;;14.68;;
71806;SDS011;59655;42.590;23.364;2022-07-04T09:38:43;19.45;;;14.13;;
71806;SDS011;59655;42.590;23.364;2022-07-04T09:41:09;21.00;;;14.07;;
71806;SDS011;59655;42.590;23.364;2022-07-04T09:44:03;25.38;;;13.95;;
71806;SDS011;59655;42.590;23.364;2022-07-04T09:46:29;21.02;;;14.18;;
71806;SDS011;59655;42.590;23.364;2022-07-04T09:48:56;20.85;;;13.10;;
71806;SDS011;59655;42.590;23.364;2022-07-04T09:56:41;25.90;;;15.07;;
71806;SDS011;59655;42.590;23.364;2022-07-04T09:59:17;21.33;;;14.50;;
71806;SDS011;59655;42.590;23.364;2022-07-04T10:01:43;21.52;;;14.07;;
71806;SDS011;59655;42.590;23.364;2022-07-04T10:04:08;20.83;;;13.32;;
71806;SDS011;59655;42.590;23.364;2022-07-04T10:06:37;24.08;;;15.27;;
71806;SDS011;59655;42.590;23.364;2022-07-04T10:09:07;27.88;;;14.88;;
71806;SDS011;59655;42.590;23.364;2022-07-04T10:11:33;23.02;;;14.30;;
71806;SDS011;59655;42.590;23.364;2022-07-04T10:13:59;21.45;;;15.25;;
71806;SDS011;59655;42.590;23.364;2022-07-04T10:16:25;23.30;;;14.43;;
71806;SDS011;59655;42.590;23.364;2022-07-04T10:18:51;27.60;;;14.82;;
71806;SDS011;59655;42.590;23.364;2022-07-04T10:21:19;20.52;;;14.18;;
71806;SDS011;59655;42.590;23.364;2022-07-04T10:23:45;22.30;;;14.40;;
71806;SDS011;59655;42.590;23.364;2022-07-04T10:26:10;23.05;;;13.77;;
71806;SDS011;59655;42.590;23.364;2022-07-04T10:28:37;29.83;;;14.38;;
71806;SDS011;59655;42.590;23.364;2022-07-04T10:31:03;27.15;;;14.82;;
71806;SDS011;59655;42.590;23.364;2022-07-04T10:33:28;25.88;;;14.88;;
71806;SDS011;59655;42.590;23.364;2022-07-04T10:35:55;26.15;;;15.32;;
71806;SDS011;59655;42.590;23.364;2022-07-04T10:38:29;25.08;;;14.80;;
71806;SDS011;59655;42.590;23.364;2022-07-04T10:41:08;23.20;;;15.50;;
71806;SDS011;59655;42.590;23.364;2022-07-04T10:48:31;22.42;;;14.07;;
71806;SDS011;59655;42.590;23.364;2022-07-04T10:51:04;20.95;;;13.43;;
71806;SDS011;59655;42.590;23.364;2022-07-04T10:53:31;21.85;;;13.43;;
71806;SDS011;59655;42.590;23.364;2022-07-04T10:58:44;20.98;;;13.73;;
71806;SDS011;59655;42.590;23.364;2022-07-04T11:01:14;23.38;;;13.25;;
71806;SDS011;59655;42.590;23.364;2022-07-04T11:03:47;22.60;;;14.07;;
71806;SDS011;59655;42.590;23.364;2022-07-04T11:11:49;19.02;;;12.82;;
71806;SDS011;59655;42.590;23.364;2022-07-04T11:17:00;18.17;;;13.63;;
71806;SDS011;59655;42.590;23.364;2022-07-04T11:19:26;20.65;;;13.95;;
71806;SDS011;59655;42.590;23.364;2022-07-04T11:21:55;24.63;;;14.05;;
71806;SDS011;59655;42.590;23.364;2022-07-04T11:24:21;19.85;;;13.40;;
71806;SDS011;59655;42.590;23.364;2022-07-04T11:26:47;20.80;;;13.75;;
71806;SDS011;59655;42.590;23.364;2022-07-04T11:29:13;20.15;;;13.77;;
71806;SDS011;59655;42.590;23.364;2022-07-04T11:31:42;25.15;;;14.13;;
71806;SDS011;59655;42.590;23.364;2022-07-04T11:34:10;25.33;;;13.70;;
71806;SDS011;59655;42.590;23.364;2022-07-04T11:36:36;17.25;;;12.50;;
71806;SDS011;59655;42.590;23.364;2022-07-04T11:39:07;20.38;;;13.43;;
71806;SDS011;59655;42.590;23.364;2022-07-04T11:41:34;20.33;;;12.88;;
71806;SDS011;59655;42.590;23.364;2022-07-04T11:44:21;20.80;;;13.73;;
71806;SDS011;59655;42.590;23.364;2022-07-04T11:49:41;21.83;;;14.45;;
71806;SDS011;59655;42.590;23.364;2022-07-04T11:52:08;25.48;;;14.43;;
71806;SDS011;59655;42.590;23.364;2022-07-04T11:54:34;20.00;;;13.43;;
71806;SDS011;59655;42.590;23.364;2022-07-04T11:57:12;22.38;;;13.25;;
71806;SDS011;59655;42.590;23.364;2022-07-04T11:59:43;22.05;;;12.77;;
71806;SDS011;59655;42.590;23.364;2022-07-04T12:02:16;20.73;;;13.32;;
71806;SDS011;59655;42.590;23.364;2022-07-04T12:04:42;22.30;;;12.75;;
71806;SDS011;59655;42.590;23.364;2022-07-04T12:07:08;22.27;;;13.48;;
71806;SDS011;59655;42.590;23.364;2022-07-04T12:09:38;21.58;;;13.90;;
71806;SDS011;59655;42.590;23.364;2022-07-04T12:12:04;24.65;;;13.63;;
71806;SDS011;59655;42.590;23.364;2022-07-04T12:14:31;22.00;;;12.70;;
71806;SDS011;59655;42.590;23.364;2022-07-04T12:17:16;21.05;;;13.27;;
71806;SDS011;59655;42.590;23.364;2022-07-04T12:22:24;27.33;;;14.18;;
71806;SDS011;59655;42.590;23.364;2022-07-04T12:24:49;22.73;;;13.27;;
71806;SDS011;59655;42.590;23.364;2022-07-04T12:27:18;20.63;;;14.02;;
71806;SDS011;59655;42.590;23.364;2022-07-04T12:29:50;20.52;;;14.15;;
71806;SDS011;59655;42.590;23.364;2022-07-04T12:32:17;20.17;;;14.40;;
71806;SDS011;59655;42.590;23.364;2022-07-04T12:34:43;20.90;;;13.98;;
71806;SDS011;59655;42.590;23.364;2022-07-04T12:37:10;20.25;;;13.93;;
71806;SDS011;59655;42.590;23.364;2022-07-04T12:39:37;21.85;;;14.07;;
71806;SDS011;59655;42.590;23.364;2022-07-04T12:44:41;21.42;;;13.95;;
71806;SDS011;59655;42.590;23.364;2022-07-04T12:47:08;20.13;;;13.18;;
71806;SDS011;59655;42.590;23.364;2022-07-04T12:49:35;18.70;;;12.63;;
71806;SDS011;59655;42.590;23.364;2022-07-04T12:52:04;20.70;;;13.48;;
71806;SDS011;59655;42.590;23.364;2022-07-04T12:54:31;30.65;;;13.57;;
71806;SDS011;59655;42.590;23.364;2022-07-04T12:57:03;20.05;;;13.70;;
71806;SDS011;59655;42.590;23.364;2022-07-04T12:59:30;17.48;;;12.13;;
71806;SDS011;59655;42.590;23.364;2022-07-04T13:01:55;20.60;;;13.85;;
71806;SDS011;59655;42.590;23.364;2022-07-04T13:04:20;18.88;;;12.95;;
71806;SDS011;59655;42.590;23.364;2022-07-04T13:06:46;23.25;;;13.73;;
71806;SDS011;59655;42.590;23.364;2022-07-04T13:09:11;19.88;;;12.52;;
71806;SDS011;59655;42.590;23.364;2022-07-04T13:11:37;20.45;;;12.23;;
71806;SDS011;59655;42.590;23.364;2022-07-04T13:14:22;20.58;;;12.60;;
71806;SDS011;59655;42.590;23.364;2022-07-04T13:16:47;24.40;;;12.95;;
71806;SDS011;59655;42.590;23.364;2022-07-04T13:19:12;35.10;;;13.70;;
71806;SDS011;59655;42.590;23.364;2022-07-04T13:21:38;21.73;;;12.90;;
71806;SDS011;59655;42.590;23.364;2022-07-04T13:24:03;26.27;;;12.95;;
71806;SDS011;59655;42.590;23.364;2022-07-04T13:26:29;26.45;;;12.93;;
71806;SDS011;59655;42.590;23.364;2022-07-04T13:28:57;33.50;;;14.23;;
71806;SDS011;59655;42.590;23.364;2022-07-04T13:31:22;21.92;;;12.43;;
71806;SDS011;59655;42.590;23.364;2022-07-04T13:33:48;24.80;;;13.93;;
71806;SDS011;59655;42.590;23.364;2022-07-04T13:36:13;24.58;;;13.13;;
71806;SDS011;59655;42.590;23.364;2022-07-04T13:38:40;22.67;;;12.88;;
71806;SDS011;59655;42.590;23.364;2022-07-04T13:41:05;26.48;;;12.68;;
71806;SDS011;59655;42.590;23.364;2022-07-04T13:43:31;22.80;;;13.43;;
71806;SDS011;59655;42.590;23.364;2022-07-04T13:45:56;16.75;;;12.43;;
71806;SDS011;59655;42.590;23.364;2022-07-04T13:48:22;23.08;;;12.85;;
71806;SDS011;59655;42.590;23.364;2022-07-04T13:50:49;27.23;;;13.55;;
71806;SDS011;59655;42.590;23.364;2022-07-04T13:53:14;16.80;;;12.75;;
71806;SDS011;59655;42.590;23.364;2022-07-04T13:55:40;20.58;;;13.57;;
71806;SDS011;59655;42.590;23.364;2022-07-04T13:58:06;21.10;;;13.63;;
71806;SDS011;59655;42.590;23.364;2022-07-04T14:00:32;21.75;;;13.50;;
71806;SDS011;59655;42.590;23.364;2022-07-04T14:02:59;21.23;;;13.25;;
71806;SDS011;59655;42.590;23.364;2022-07-04T14:05:24;24.65;;;13.02;;
71806;SDS011;59655;42.590;23.364;2022-07-04T14:07:50;16.52;;;11.68;;
71806;SDS011;59655;42.590;23.364;2022-07-04T14:10:19;19.58;;;13.00;;
71806;SDS011;59655;42.590;23.364;2022-07-04T14:12:45;17.10;;;12.27;;
71806;SDS011;59655;42.590;23.364;2022-07-04T14:15:11;17.95;;;12.23;;
71806;SDS011;59655;42.590;23.364;2022-07-04T14:17:37;19.50;;;12.52;;
71806;SDS011;59655;42.590;23.364;2022-07-04T14:20:03;21.00;;;13.27;;
71806;SDS011;59655;42.590;23.364;2022-07-04T14:22:30;16.80;;;12.75;;
71806;SDS011;59655;42.590;23.364;2022-07-04T14:24:56;17.58;;;11.68;;
71806;SDS011;59655;42.590;23.364;2022-07-04T14:27:21;17.38;;;12.45;;
71806;SDS011;59655;42.590;23.364;2022-07-04T14:29:47;16.70;;;12.38;;
71806;SDS011;59655;42.590;23.364;2022-07-04T14:32:12;21.38;;;12.05;;
71806;SDS011;59655;42.590;23.364;2022-07-04T14:34:38;20.75;;;11.82;;
71806;SDS011;59655;42.590;23.364;2022-07-04T14:37:03;19.15;;;11.90;;
71806;SDS011;59655;42.590;23.364;2022-07-04T14:39:29;19.73;;;12.25;;
71806;SDS011;59655;42.590;23.364;2022-07-04T14:41:54;21.85;;;12.88;;
71806;SDS011;59655;42.590;23.364;2022-07-04T14:44:19;17.00;;;11.73;;
71806;SDS011;59655;42.590;23.364;2022-07-04T14:46:46;16.73;;;11.57;;
71806;SDS011;59655;42.590;23.364;2022-07-04T14:49:11;18.60;;;12.15;;
71806;SDS011;59655;42.590;23.364;2022-07-04T14:51:37;15.05;;;11.40;;
71806;SDS011;59655;42.590;23.364;2022-07-04T14:54:08;17.23;;;11.90;;